createdAt,value
2022-11-05T00:00:47.573Z,51.28
2022-11-05T00:04:08.213Z,51.45
2022-11-05T00:07:36.314Z,51.59
2022-11-05T00:10:39.295Z,51.50
2022-11-05T00:14:00.204Z,51.38
2022-11-05T00:17:02.371Z,51.46
2022-11-05T00:20:06.321Z,51.44
2022-11-05T00:23:27.204Z,51.70
2022-11-05T00:26:33.607Z,51.45
2022-11-05T00:29:36.061Z,51.60
2022-11-05T00:32:38.424Z,51.66
2022-11-05T00:35:41.583Z,51.49
2022-11-05T00:38:43.766Z,51.67
2022-11-05T00:42:05.903Z,51.60
2022-11-05T00:45:08.530Z,51.62
2022-11-05T00:48:29.292Z,51.44
2022-11-05T00:51:31.549Z,51.74
2022-11-05T00:54:33.706Z,51.60
2022-11-05T00:57:35.891Z,51.36
2022-11-05T01:00:40.599Z,51.45
2022-11-05T01:03:45.107Z,51.50
2022-11-05T01:06:51.083Z,51.63
2022-11-05T01:09:53.275Z,51.49
2022-11-05T01:12:55.833Z,51.68
2022-11-05T01:15:58.296Z,51.60
2022-11-05T01:19:02.133Z,51.42
2022-11-05T01:22:04.318Z,51.44
2022-11-05T01:25:07.540Z,51.52
2022-11-05T01:28:10.475Z,51.43
2022-11-05T01:31:12.666Z,51.58
2022-11-05T01:34:14.905Z,51.39
2022-11-05T01:37:17.618Z,51.70
2022-11-05T01:40:22.471Z,51.61
2022-11-05T01:43:24.693Z,51.63
2022-11-05T01:46:34.130Z,51.55
2022-11-05T01:49:36.344Z,51.41
2022-11-05T01:52:38.705Z,51.50
2022-11-05T01:55:46.105Z,51.76
2022-11-05T01:58:52.427Z,51.53
2022-11-05T02:01:55.239Z,51.55
2022-11-05T02:05:03.235Z,51.45
2022-11-05T02:08:06.562Z,51.44
2022-11-05T02:11:09.171Z,51.54
2022-11-05T02:14:11.315Z,51.41
2022-11-05T02:17:28.152Z,51.56
2022-11-05T02:20:58.461Z,51.51
2022-11-05T02:24:03.420Z,51.48
2022-11-05T02:27:26.895Z,51.31
2022-11-05T02:30:58.457Z,51.47
2022-11-05T02:34:14.215Z,51.64
2022-11-05T02:37:34.961Z,51.43
2022-11-05T02:40:40.114Z,51.52
2022-11-05T02:43:55.105Z,51.52
2022-11-05T02:47:18.356Z,51.54
2022-11-05T02:51:05.155Z,51.43
2022-11-05T02:54:19.394Z,51.42
2022-11-05T02:57:22.636Z,51.64
2022-11-05T03:00:55.419Z,51.37
2022-11-05T03:04:00.830Z,51.33
2022-11-05T03:07:29.249Z,51.45
2022-11-05T03:11:13.910Z,51.46
2022-11-05T03:14:32.484Z,51.49
2022-11-05T03:17:53.769Z,51.54
2022-11-05T03:21:17.830Z,51.60
2022-11-05T03:24:45.168Z,51.41
2022-11-05T03:27:50.599Z,51.50
2022-11-05T03:30:56.828Z,51.51
2022-11-05T03:34:01.174Z,51.59
2022-11-05T03:37:05.293Z,51.36
2022-11-05T03:40:10.206Z,51.37
2022-11-05T03:43:14.567Z,51.42
2022-11-05T03:46:41.753Z,51.61
2022-11-05T03:49:59.084Z,51.63
2022-11-05T03:53:09.828Z,51.50
2022-11-05T03:56:19.098Z,51.64
2022-11-05T03:59:22.605Z,51.46
2022-11-05T04:02:27.206Z,51.27
2022-11-05T04:05:29.539Z,51.47
2022-11-05T04:08:50.255Z,51.52
2022-11-05T04:12:10.960Z,51.36
2022-11-05T04:15:13.283Z,51.37
2022-11-05T04:18:15.456Z,51.40
2022-11-05T04:21:39.289Z,51.37
2022-11-05T04:24:41.502Z,51.68
2022-11-05T04:27:44.426Z,51.44
2022-11-05T04:30:46.603Z,51.49
2022-11-05T04:33:49.065Z,51.47
2022-11-05T04:36:53.381Z,51.43
2022-11-05T04:39:55.612Z,51.49
2022-11-05T04:42:58.432Z,51.25
2022-11-05T04:46:00.601Z,51.47
2022-11-05T04:49:02.773Z,51.62
2022-11-05T04:52:05.157Z,51.33
2022-11-05T04:55:08.344Z,51.34
2022-11-05T04:58:10.487Z,51.34
2022-11-05T05:01:17.256Z,51.42
2022-11-05T05:04:20.664Z,51.26
2022-11-05T05:07:22.982Z,51.39
2022-11-05T05:10:25.155Z,51.47
2022-11-05T05:13:27.379Z,51.42
2022-11-05T05:16:29.560Z,51.29
2022-11-05T05:19:54.012Z,51.15
2022-11-05T05:22:56.374Z,51.43
2022-11-05T05:26:00.410Z,51.43
2022-11-05T05:29:03.598Z,51.28
2022-11-05T05:32:06.425Z,51.29
2022-11-05T05:35:09.161Z,51.35
2022-11-05T05:38:11.303Z,51.33
2022-11-05T05:41:13.508Z,51.48
2022-11-05T05:44:15.788Z,51.47
2022-11-05T05:47:17.970Z,51.34
2022-11-05T05:50:20.152Z,51.32
2022-11-05T05:53:28.052Z,51.28
2022-11-05T05:56:32.874Z,51.37
2022-11-05T05:59:35.088Z,51.46
2022-11-05T06:02:37.376Z,51.63
2022-11-05T06:05:39.618Z,51.50
2022-11-05T06:08:42.723Z,51.38
2022-11-05T06:11:44.954Z,51.42
2022-11-05T06:14:47.533Z,51.18
2022-11-05T06:17:49.796Z,51.48
2022-11-05T06:20:51.954Z,51.51
2022-11-05T06:23:54.165Z,51.38
2022-11-05T06:26:56.382Z,51.35
2022-11-05T06:29:58.572Z,51.37
2022-11-05T06:33:05.201Z,51.14
2022-11-05T06:36:15.058Z,51.28
2022-11-05T06:39:17.235Z,51.22
2022-11-05T06:42:19.670Z,51.34
2022-11-05T06:45:22.068Z,51.01
2022-11-05T06:48:25.433Z,51.09
2022-11-05T06:51:27.675Z,51.04
2022-11-05T06:54:29.861Z,51.20
2022-11-05T06:57:32.076Z,51.15
2022-11-05T07:00:34.365Z,51.00
2022-11-05T07:03:37.959Z,51.14
2022-11-05T07:06:40.153Z,51.00
2022-11-05T07:09:43.255Z,51.13
2022-11-05T07:12:45.509Z,50.82
2022-11-05T07:15:47.781Z,51.24
2022-11-05T07:18:50.028Z,50.96
2022-11-05T07:21:52.436Z,50.87
2022-11-05T07:24:54.677Z,50.85
2022-11-05T07:27:56.922Z,50.87
2022-11-05T07:30:59.231Z,50.76
2022-11-05T07:34:01.747Z,50.66
2022-11-05T07:37:05.137Z,50.97
2022-11-05T07:40:07.772Z,50.81
2022-11-05T07:43:10.456Z,50.96
2022-11-05T07:46:13.912Z,50.87
2022-11-05T07:49:16.745Z,50.89
2022-11-05T07:52:19.144Z,50.81
2022-11-05T07:55:21.334Z,50.86
2022-11-05T07:58:23.495Z,50.94
2022-11-05T08:01:26.168Z,50.75
2022-11-05T08:04:28.494Z,50.59
2022-11-05T08:07:30.726Z,50.70
2022-11-05T08:10:34.141Z,50.96
2022-11-05T08:13:37.506Z,50.82
2022-11-05T08:16:39.722Z,50.81
2022-11-05T08:19:42.033Z,50.66
2022-11-05T08:22:45.460Z,50.65
2022-11-05T08:25:47.599Z,50.70
2022-11-05T08:28:49.764Z,50.77
2022-11-05T08:31:55.004Z,50.61
2022-11-05T08:34:57.156Z,50.59
2022-11-05T08:38:02.648Z,50.55
2022-11-05T08:41:05.392Z,50.64
2022-11-05T08:44:10.416Z,50.57
2022-11-05T08:47:12.592Z,50.63
2022-11-05T08:50:14.827Z,50.34
2022-11-05T08:53:18.173Z,50.48
2022-11-05T08:56:20.603Z,50.34
2022-11-05T08:59:22.839Z,50.31
2022-11-05T09:02:26.436Z,50.33
2022-11-05T09:05:30.129Z,50.48
2022-11-05T09:08:32.424Z,50.10
2022-11-05T09:12:05.352Z,50.41
2022-11-05T09:14:57.063Z,50.20
2022-11-05T09:17:59.917Z,50.29
2022-11-05T09:21:02.074Z,50.18
2022-11-05T09:24:04.493Z,50.17
2022-11-05T09:27:10.268Z,50.17
2022-11-05T09:30:13.559Z,50.17
2022-11-05T09:33:17.800Z,50.21
2022-11-05T09:36:19.984Z,50.29
2022-11-05T09:39:22.156Z,50.34
2022-11-05T09:42:30.613Z,50.38
2022-11-05T09:45:40.641Z,50.16
2022-11-05T09:48:48.453Z,50.26
2022-11-05T09:51:54.139Z,50.16
2022-11-05T09:54:57.680Z,50.36
2022-11-05T09:58:03.474Z,50.13
2022-11-05T10:01:11.482Z,50.27
2022-11-05T10:04:23.040Z,50.16
2022-11-05T10:07:30.944Z,50.15
2022-11-05T10:10:47.585Z,49.98
2022-11-05T10:13:56.767Z,49.90
2022-11-05T10:17:17.314Z,50.15
2022-11-05T10:20:35.952Z,50.09
2022-11-05T10:23:44.713Z,50.14
2022-11-05T10:26:50.427Z,50.15
2022-11-05T10:29:52.971Z,49.94
2022-11-05T10:33:01.898Z,49.87
2022-11-05T10:36:07.799Z,50.07
2022-11-05T10:39:13.421Z,50.04
2022-11-05T10:42:43.698Z,49.94
2022-11-05T10:46:27.814Z,49.79
2022-11-05T10:50:02.008Z,49.84
2022-11-05T10:53:19.934Z,49.85
2022-11-05T10:56:37.154Z,49.97
2022-11-05T10:59:39.368Z,49.66
2022-11-05T11:02:43.455Z,49.79
2022-11-05T11:05:45.890Z,49.75
2022-11-05T11:08:49.919Z,49.74
2022-11-05T11:11:56.813Z,49.73
2022-11-05T11:15:23.508Z,49.94
2022-11-05T11:18:40.296Z,49.89
2022-11-05T11:21:44.081Z,49.84
2022-11-05T11:24:49.483Z,49.67
2022-11-05T11:27:53.114Z,49.80
2022-11-05T11:31:11.815Z,49.83
2022-11-05T11:34:27.689Z,49.90
2022-11-05T11:37:42.155Z,49.91
2022-11-05T11:40:45.355Z,49.80
2022-11-05T11:43:47.966Z,49.92
2022-11-05T11:46:53.261Z,49.95
2022-11-05T11:49:58.117Z,49.52
2022-11-05T11:53:36.020Z,49.68
2022-11-05T11:56:46.692Z,49.71
2022-11-05T12:00:07.876Z,49.66
2022-11-05T12:03:49.712Z,49.45
2022-11-05T12:07:18.136Z,49.66
2022-11-05T12:10:35.667Z,49.74
2022-11-05T12:13:56.504Z,49.70
2022-11-05T12:17:02.976Z,49.72
2022-11-05T12:20:20.028Z,49.61
2022-11-05T12:23:42.567Z,49.96
2022-11-05T12:27:02.432Z,49.77
2022-11-05T12:30:14.066Z,49.87
2022-11-05T12:33:22.449Z,49.77
2022-11-05T12:36:38.415Z,49.88
2022-11-05T12:39:40.538Z,49.82
2022-11-05T12:43:01.118Z,49.86
2022-11-05T12:46:21.838Z,50.03
2022-11-05T12:49:42.716Z,50.11
2022-11-05T12:52:58.508Z,49.93
2022-11-05T12:56:06.661Z,49.59
2022-11-05T12:59:14.582Z,50.06
2022-11-05T13:02:43.928Z,49.91
2022-11-05T13:06:40.294Z,50.21
2022-11-05T13:09:51.986Z,50.12
2022-11-05T13:13:29.373Z,50.11
2022-11-05T13:16:51.473Z,50.11
2022-11-05T13:20:17.012Z,50.40
2022-11-05T13:23:35.144Z,50.29
2022-11-05T13:26:50.349Z,50.08
2022-11-05T13:30:04.983Z,50.35
2022-11-05T13:33:27.663Z,50.22
2022-11-05T13:37:13.461Z,50.11
2022-11-05T13:40:21.052Z,50.30
2022-11-05T13:43:23.216Z,50.46
2022-11-05T13:46:41.056Z,50.27
2022-11-05T13:50:09.409Z,50.41
2022-11-05T13:53:41.070Z,50.36
2022-11-05T13:57:18.719Z,50.28
2022-11-05T14:00:36.647Z,50.45
2022-11-05T14:03:53.441Z,50.54
2022-11-05T14:07:06.537Z,50.55
2022-11-05T14:10:27.121Z,50.49
2022-11-05T14:13:39.318Z,50.42
2022-11-05T14:17:09.343Z,50.72
2022-11-05T14:20:33.405Z,50.46
2022-11-05T14:23:40.985Z,50.65
2022-11-05T14:26:43.216Z,50.70
2022-11-05T14:29:49.921Z,50.71
2022-11-05T14:33:03.942Z,50.82
2022-11-05T14:36:21.345Z,50.48
2022-11-05T14:39:29.029Z,50.59
2022-11-05T14:42:31.632Z,50.67
2022-11-05T14:45:52.337Z,50.78
2022-11-05T14:49:09.186Z,50.78
2022-11-05T14:52:16.973Z,50.73
2022-11-05T14:55:38.561Z,50.40
2022-11-05T14:58:43.326Z,50.78
2022-11-05T15:01:45.587Z,50.56
2022-11-05T15:04:52.720Z,50.69
2022-11-05T15:07:57.545Z,50.52
2022-11-05T15:11:32.959Z,50.63
2022-11-05T15:14:40.485Z,50.81
2022-11-05T15:17:53.152Z,50.74
2022-11-05T15:20:58.881Z,50.70
2022-11-05T15:24:03.057Z,50.87
2022-11-05T15:27:40.232Z,50.83
2022-11-05T15:30:56.840Z,50.77
2022-11-05T15:34:26.693Z,50.84
2022-11-05T15:37:28.909Z,50.79
2022-11-05T15:40:32.961Z,50.77
2022-11-05T15:43:35.244Z,50.78
2022-11-05T15:46:37.405Z,50.79
2022-11-05T15:49:41.808Z,50.59
2022-11-05T15:52:53.863Z,50.76
2022-11-05T15:56:01.928Z,50.54
2022-11-05T15:59:19.080Z,50.75
2022-11-05T16:02:30.551Z,50.69
2022-11-05T16:05:35.554Z,50.71
2022-11-05T16:08:37.793Z,50.80
2022-11-05T16:11:40.388Z,50.77
2022-11-05T16:14:42.721Z,50.78
2022-11-05T16:17:46.593Z,50.83
2022-11-05T16:21:10.911Z,50.79
2022-11-05T16:24:28.124Z,50.80
2022-11-05T16:27:31.655Z,50.80
2022-11-05T16:30:34.119Z,50.68
2022-11-05T16:33:46.185Z,50.60
2022-11-05T16:36:48.615Z,50.59
2022-11-05T16:39:52.130Z,50.72
2022-11-05T16:42:55.279Z,50.72
2022-11-05T16:46:00.252Z,50.74
2022-11-05T16:49:02.755Z,50.87
2022-11-05T16:52:12.951Z,50.74
2022-11-05T16:55:16.803Z,50.74
2022-11-05T16:58:22.472Z,50.68
2022-11-05T17:01:25.460Z,50.69
2022-11-05T17:04:27.946Z,50.74
2022-11-05T17:07:38.498Z,50.63
2022-11-05T17:10:43.711Z,50.69
2022-11-05T17:13:46.967Z,50.76
2022-11-05T17:16:51.802Z,50.73
2022-11-05T17:19:54.164Z,50.58
2022-11-05T17:23:00.266Z,50.79
2022-11-05T17:26:08.634Z,50.72
2022-11-05T17:29:11.013Z,50.73
2022-11-05T17:32:13.387Z,50.78
2022-11-05T17:35:16.033Z,50.72
2022-11-05T17:38:18.828Z,50.77
2022-11-05T17:41:23.163Z,50.72
2022-11-05T17:44:25.595Z,50.42
2022-11-05T17:47:28.056Z,50.74
2022-11-05T17:50:30.507Z,50.88
2022-11-05T17:53:32.879Z,50.97
2022-11-05T17:56:40.298Z,50.74
2022-11-05T17:59:45.712Z,50.81
2022-11-05T18:02:49.704Z,50.86
2022-11-05T18:05:52.205Z,50.85
2022-11-05T18:08:54.615Z,50.82
2022-11-05T18:11:57.043Z,50.90
2022-11-05T18:14:59.407Z,50.80
2022-11-05T18:18:01.847Z,50.88
2022-11-05T18:21:04.532Z,50.71
2022-11-05T18:24:07.770Z,50.70
2022-11-05T18:27:10.305Z,50.77
2022-11-05T18:30:16.095Z,50.40
2022-11-05T18:33:18.483Z,50.84
2022-11-05T18:36:26.326Z,50.90
2022-11-05T18:39:28.715Z,50.88
2022-11-05T18:42:31.094Z,50.79
2022-11-05T18:45:33.617Z,50.89
2022-11-05T18:48:36.537Z,50.79
2022-11-05T18:51:38.943Z,50.95
2022-11-05T18:54:43.807Z,50.79
2022-11-05T18:57:46.215Z,51.04
2022-11-05T19:00:48.664Z,50.64
2022-11-05T19:03:51.518Z,50.72
2022-11-05T19:06:54.473Z,50.88
2022-11-05T19:09:59.196Z,50.79
2022-11-05T19:13:01.584Z,50.90
2022-11-05T19:16:10.884Z,50.85
2022-11-05T19:19:13.403Z,50.81
2022-11-05T19:22:15.812Z,50.96
2022-11-05T19:25:18.174Z,50.71
2022-11-05T19:28:20.545Z,50.72
2022-11-05T19:31:23.739Z,50.89
2022-11-05T19:34:26.191Z,50.86
2022-11-05T19:37:28.574Z,50.65
2022-11-05T19:40:30.992Z,50.88
2022-11-05T19:43:34.936Z,50.90
2022-11-05T19:46:37.311Z,51.00
2022-11-05T19:49:39.657Z,50.90
2022-11-05T19:52:42.499Z,50.81
2022-11-05T19:55:45.153Z,50.79
2022-11-05T19:58:49.079Z,51.04
2022-11-05T20:01:51.597Z,51.19
2022-11-05T20:04:54.113Z,50.93
2022-11-05T20:07:56.623Z,50.79
2022-11-05T20:10:59.178Z,50.79
2022-11-05T20:14:02.298Z,51.13
2022-11-05T20:17:05.442Z,50.98
2022-11-05T20:20:08.312Z,50.78
2022-11-05T20:23:11.561Z,50.88
2022-11-05T20:26:15.238Z,50.88
2022-11-05T20:29:17.724Z,50.95
2022-11-05T20:32:20.107Z,50.69
2022-11-05T20:35:23.872Z,50.95
2022-11-05T20:38:26.317Z,51.01
2022-11-05T20:41:29.098Z,50.93
2022-11-05T20:44:31.542Z,50.92
2022-11-05T20:47:34.451Z,50.94
2022-11-05T20:50:43.989Z,51.00
2022-11-05T20:53:47.196Z,50.96
2022-11-05T20:56:49.832Z,50.79
2022-11-05T20:59:52.294Z,50.69
2022-11-05T21:02:54.925Z,50.87
2022-11-05T21:06:00.120Z,50.96
2022-11-05T21:09:03.826Z,50.80
2022-11-05T21:12:12.564Z,50.96
2022-11-05T21:15:15.301Z,51.00
2022-11-05T21:18:19.409Z,50.85
2022-11-05T21:21:21.797Z,50.91
2022-11-05T21:24:24.393Z,50.68
2022-11-05T21:27:27.151Z,51.21
2022-11-05T21:30:29.557Z,51.07
2022-11-05T21:33:33.503Z,51.01
2022-11-05T21:36:35.939Z,51.14
2022-11-05T21:39:38.289Z,50.83
2022-11-05T21:42:40.748Z,50.90
2022-11-05T21:45:45.201Z,51.00
2022-11-05T21:48:47.803Z,50.74
2022-11-05T21:52:09.272Z,50.89
2022-11-05T21:55:31.551Z,51.02
2022-11-05T21:58:52.802Z,50.98
2022-11-05T22:02:01.491Z,50.87
2022-11-05T22:05:05.405Z,50.97
2022-11-05T22:08:07.837Z,50.82
2022-11-05T22:11:10.308Z,51.21
2022-11-05T22:14:12.707Z,50.90
2022-11-05T22:17:15.582Z,51.18
2022-11-05T22:20:18.155Z,51.17
2022-11-05T22:23:20.508Z,51.06
2022-11-05T22:26:23.026Z,50.93
2022-11-05T22:29:26.365Z,51.09
2022-11-05T22:32:28.781Z,50.95
2022-11-05T22:35:31.223Z,50.97
2022-11-05T22:38:33.831Z,50.99
2022-11-05T22:41:36.400Z,50.88
2022-11-05T22:44:38.817Z,51.16
2022-11-05T22:47:42.142Z,50.83
2022-11-05T22:50:44.299Z,51.07
2022-11-05T22:53:47.117Z,50.97
2022-11-05T22:56:50.318Z,51.09
2022-11-05T22:59:52.500Z,51.01
2022-11-05T23:02:54.826Z,51.07
2022-11-05T23:06:31.277Z,51.09
2022-11-05T23:09:53.618Z,51.10
2022-11-05T23:12:55.852Z,51.03
2022-11-05T23:16:16.632Z,51.03
2022-11-05T23:19:37.961Z,51.23
2022-11-05T23:22:58.845Z,51.22
2022-11-05T23:26:21.284Z,51.02
2022-11-05T23:29:26.218Z,50.91
2022-11-05T23:32:31.124Z,51.05
2022-11-05T23:35:53.083Z,50.99
2022-11-05T23:38:55.241Z,51.15
2022-11-05T23:42:16.008Z,51.32
2022-11-05T23:45:36.902Z,51.10
2022-11-05T23:48:39.115Z,51.06
2022-11-05T23:51:41.369Z,51.05
2022-11-05T23:54:43.550Z,51.05
2022-11-05T23:57:45.884Z,51.10
